createdAt,value
2023-04-14T00:01:57.257Z,19.70
2023-04-14T00:04:24.056Z,19.37
2023-04-14T00:06:52.811Z,18.83
2023-04-14T00:09:19.309Z,19.43
2023-04-14T00:11:45.809Z,18.93
2023-04-14T00:14:12.320Z,18.93
2023-04-14T00:16:39.717Z,18.53
2023-04-14T00:19:06.338Z,18.33
2023-04-14T00:21:32.831Z,17.63
2023-04-14T00:23:59.334Z,19.42
2023-04-14T00:26:25.792Z,19.10
2023-04-14T00:28:52.296Z,18.70
2023-04-14T00:31:18.912Z,19.63
2023-04-14T00:33:45.490Z,20.97
2023-04-14T00:36:11.955Z,19.90
2023-04-14T00:38:38.424Z,20.67
2023-04-14T00:41:04.938Z,20.60
2023-04-14T00:43:31.410Z,22.20
2023-04-14T00:45:57.921Z,21.03
2023-04-14T00:48:24.446Z,23.93
2023-04-14T00:50:50.950Z,22.00
2023-04-14T00:53:17.498Z,22.47
2023-04-14T00:55:44.021Z,20.38
2023-04-14T00:58:11.130Z,21.52
2023-04-14T01:00:37.864Z,22.00
2023-04-14T01:03:04.559Z,22.33
2023-04-14T01:05:31.228Z,21.80
2023-04-14T01:07:57.778Z,22.50
2023-04-14T01:10:25.024Z,21.90
2023-04-14T01:13:04.888Z,22.17
2023-04-14T01:15:36.193Z,24.33
2023-04-14T01:18:19.753Z,23.83
2023-04-14T01:20:50.151Z,23.20
2023-04-14T01:23:19.928Z,23.77
2023-04-14T01:25:55.405Z,24.33
2023-04-14T01:28:25.033Z,23.83
2023-04-14T01:30:54.635Z,25.03
2023-04-14T01:33:21.257Z,24.47
2023-04-14T01:35:51.902Z,23.37
2023-04-14T01:38:28.779Z,23.40
2023-04-14T01:40:59.600Z,23.93
2023-04-14T01:43:27.263Z,24.57
2023-04-14T01:45:55.695Z,24.50
2023-04-14T01:48:22.656Z,25.10
2023-04-14T01:50:49.134Z,26.73
2023-04-14T01:53:15.917Z,27.70
2023-04-14T01:55:44.314Z,28.53
2023-04-14T01:58:10.895Z,28.37
2023-04-14T02:00:37.420Z,29.20
2023-04-14T02:03:07.068Z,28.73
2023-04-14T02:05:34.990Z,29.30
2023-04-14T02:08:01.650Z,29.93
2023-04-14T02:10:28.144Z,27.93
2023-04-14T02:12:55.088Z,24.47
2023-04-14T02:15:21.741Z,26.33
2023-04-14T02:17:48.611Z,26.83
2023-04-14T02:20:15.444Z,24.70
2023-04-14T02:22:41.916Z,25.77
2023-04-14T02:25:08.528Z,26.13
2023-04-14T02:27:53.277Z,26.57
2023-04-14T02:30:21.730Z,27.13
2023-04-14T02:32:49.542Z,26.47
2023-04-14T02:35:17.310Z,28.13
2023-04-14T02:37:54.445Z,28.47
2023-04-14T02:40:22.140Z,29.37
2023-04-14T02:42:50.328Z,30.20
2023-04-14T02:45:21.513Z,31.23
2023-04-14T02:47:48.404Z,31.23
2023-04-14T02:50:15.560Z,31.77
2023-04-14T02:52:42.443Z,32.63
2023-04-14T02:55:08.970Z,34.37
2023-04-14T02:57:35.793Z,33.57
2023-04-14T03:00:02.325Z,35.40
2023-04-14T03:02:28.967Z,35.20
2023-04-14T03:04:55.823Z,35.93
2023-04-14T03:07:22.338Z,34.97
2023-04-14T03:09:51.957Z,33.47
2023-04-14T03:12:18.540Z,34.73
2023-04-14T03:14:45.154Z,35.73
2023-04-14T03:17:12.744Z,34.77
2023-04-14T03:19:40.821Z,34.30
2023-04-14T03:22:10.734Z,34.40
2023-04-14T03:24:37.263Z,33.87
2023-04-14T03:27:05.142Z,33.00
2023-04-14T03:29:33.075Z,33.47
2023-04-14T03:32:00.437Z,32.93
2023-04-14T03:34:27.918Z,32.57
2023-04-14T03:36:54.762Z,31.40
2023-04-14T03:39:22.386Z,29.83
2023-04-14T03:41:51.705Z,28.73
2023-04-14T03:44:19.222Z,30.17
2023-04-14T03:46:46.155Z,29.60
2023-04-14T03:49:13.250Z,30.27
2023-04-14T03:51:39.725Z,31.27
2023-04-14T03:54:06.290Z,31.20
2023-04-14T03:56:33.288Z,31.63
2023-04-14T03:59:00.061Z,33.80
2023-04-14T04:01:27.354Z,36.87
2023-04-14T04:03:54.283Z,35.33
2023-04-14T04:06:21.084Z,36.27
2023-04-14T04:08:47.968Z,36.83
2023-04-14T04:11:14.454Z,35.47
2023-04-14T04:13:41.532Z,36.37
2023-04-14T04:16:08.090Z,34.90
2023-04-14T04:18:34.931Z,31.70
2023-04-14T04:21:01.400Z,31.30
2023-04-14T04:23:27.871Z,32.53
2023-04-14T04:25:54.332Z,29.63
2023-04-14T04:28:20.828Z,28.03
2023-04-14T04:30:47.276Z,28.50
2023-04-14T04:33:13.806Z,27.47
2023-04-14T04:35:40.295Z,26.63
2023-04-14T04:38:06.960Z,24.47
2023-04-14T04:40:37.648Z,24.67
2023-04-14T04:43:04.524Z,23.20
2023-04-14T04:45:41.964Z,21.63
2023-04-14T04:48:08.492Z,21.80
2023-04-14T04:50:36.131Z,21.77
2023-04-14T04:53:02.617Z,22.70
2023-04-14T04:55:29.090Z,20.97
2023-04-14T04:57:55.585Z,20.27
2023-04-14T05:00:23.094Z,21.53
2023-04-14T05:02:49.772Z,22.17
2023-04-14T05:05:16.376Z,20.40
2023-04-14T05:07:42.841Z,19.00
2023-04-14T05:10:09.399Z,18.93
2023-04-14T05:12:35.878Z,18.77
2023-04-14T05:15:03.128Z,18.70
2023-04-14T05:17:29.622Z,19.40
2023-04-14T05:19:57.635Z,19.50
2023-04-14T05:22:24.060Z,22.70
2023-04-14T05:24:50.821Z,24.03
2023-04-14T05:27:17.526Z,27.03
2023-04-14T05:29:44.053Z,29.60
2023-04-14T05:32:11.676Z,27.27
2023-04-14T05:34:41.417Z,30.80
2023-04-14T05:37:07.902Z,29.50
2023-04-14T05:39:34.589Z,28.77
2023-04-14T05:42:01.442Z,29.67
2023-04-14T05:44:28.044Z,28.17
2023-04-14T05:46:55.846Z,28.20
2023-04-14T05:49:22.662Z,26.07
2023-04-14T05:51:49.140Z,25.87
2023-04-14T05:54:15.703Z,26.23
2023-04-14T05:56:42.245Z,27.60
2023-04-14T05:59:08.884Z,28.00
2023-04-14T06:01:35.602Z,28.00
2023-04-14T06:04:03.784Z,29.20
2023-04-14T06:06:32.686Z,30.90
2023-04-14T06:08:59.508Z,33.07
2023-04-14T06:11:26.387Z,34.67
2023-04-14T06:13:52.924Z,36.47
2023-04-14T06:16:19.493Z,34.27
2023-04-14T06:18:46.039Z,35.77
2023-04-14T06:21:12.574Z,32.97
2023-04-14T06:23:39.068Z,35.70
2023-04-14T06:26:05.705Z,34.00
2023-04-14T06:28:32.285Z,33.70
2023-04-14T06:31:00.518Z,36.40
2023-04-14T06:33:27.242Z,29.50
2023-04-14T06:35:53.799Z,30.57
2023-04-14T06:38:20.424Z,30.83
2023-04-14T06:40:46.909Z,31.30
2023-04-14T06:43:15.030Z,33.47
2023-04-14T06:45:41.736Z,33.43
2023-04-14T06:48:08.402Z,30.50
2023-04-14T06:50:34.994Z,32.47
2023-04-14T06:53:01.504Z,29.60
2023-04-14T06:55:27.991Z,27.47
2023-04-14T06:57:54.567Z,28.33
2023-04-14T07:00:21.256Z,29.13
2023-04-14T07:02:47.836Z,28.73
2023-04-14T07:05:14.780Z,28.53
2023-04-14T07:07:41.786Z,27.60
2023-04-14T07:10:08.572Z,28.17
2023-04-14T07:12:35.195Z,27.93
2023-04-14T07:15:01.807Z,26.80
2023-04-14T07:17:28.480Z,27.23
2023-04-14T07:19:55.058Z,24.57
2023-04-14T07:22:21.609Z,23.87
2023-04-14T07:24:48.146Z,23.87
2023-04-14T07:27:15.777Z,26.80
2023-04-14T07:29:42.724Z,26.00
2023-04-14T07:32:09.342Z,26.40
2023-04-14T07:34:35.921Z,26.80
2023-04-14T07:37:02.462Z,26.47
2023-04-14T07:39:29.538Z,27.37
2023-04-14T07:41:58.800Z,25.07
2023-04-14T07:44:25.377Z,24.93
2023-04-14T07:46:52.008Z,26.37
2023-04-14T07:49:18.633Z,25.47
2023-04-14T07:51:45.130Z,25.17
2023-04-14T07:54:11.833Z,24.40
2023-04-14T07:56:38.357Z,24.38
2023-04-14T07:59:04.930Z,24.20
2023-04-14T08:01:31.733Z,24.87
2023-04-14T08:03:58.399Z,24.90
2023-04-14T08:06:25.130Z,23.70
2023-04-14T08:08:51.855Z,25.07
2023-04-14T08:11:18.394Z,24.97
2023-04-14T08:13:45.053Z,24.67
2023-04-14T08:16:11.577Z,23.50
2023-04-14T08:18:39.417Z,21.45
2023-04-14T08:21:05.969Z,20.23
2023-04-14T08:23:32.503Z,20.40
2023-04-14T08:25:58.985Z,18.63
2023-04-14T08:28:25.497Z,17.42
2023-04-14T08:30:52.010Z,17.25
2023-04-14T08:33:18.533Z,15.95
2023-04-14T08:35:45.000Z,13.68
2023-04-14T08:38:12.100Z,14.10
2023-04-14T08:40:39.760Z,13.60
2023-04-14T08:43:06.745Z,13.10
2023-04-14T08:45:33.408Z,13.18
2023-04-14T08:48:00.643Z,12.33
2023-04-14T08:50:28.209Z,10.98
2023-04-14T08:52:55.386Z,10.73
2023-04-14T08:55:22.013Z,10.60
2023-04-14T08:57:48.597Z,10.90
2023-04-14T09:00:16.034Z,9.93
2023-04-14T09:02:42.907Z,10.93
2023-04-14T09:05:09.857Z,9.38
2023-04-14T09:07:36.459Z,10.02
2023-04-14T09:10:03.167Z,8.60
2023-04-14T09:12:29.623Z,8.80
2023-04-14T09:14:57.234Z,9.45
2023-04-14T09:17:24.236Z,9.25
2023-04-14T09:20:36.347Z,8.90
2023-04-14T09:22:37.554Z,8.30
2023-04-14T09:25:05.116Z,7.40
2023-04-14T09:27:31.614Z,7.50
2023-04-14T09:29:58.513Z,6.72
2023-04-14T09:32:25.896Z,8.35
2023-04-14T09:34:55.751Z,7.00
2023-04-14T09:37:24.265Z,7.03
2023-04-14T09:39:51.495Z,6.93
2023-04-14T09:42:18.283Z,6.45
2023-04-14T09:44:54.551Z,6.43
2023-04-14T09:47:21.398Z,6.40
2023-04-14T09:49:58.952Z,5.57
2023-04-14T09:52:58.066Z,5.20
2023-04-14T09:55:24.585Z,4.30
2023-04-14T09:57:52.011Z,3.40
2023-04-14T10:00:20.212Z,3.58
2023-04-14T10:02:58.169Z,3.00
2023-04-14T10:05:28.344Z,1.95
2023-04-14T10:07:55.222Z,2.30
2023-04-14T10:10:22.788Z,3.00
2023-04-14T10:12:49.610Z,2.88
2023-04-14T10:15:17.443Z,2.50
2023-04-14T10:17:43.982Z,3.00
2023-04-14T10:20:10.857Z,3.03
2023-04-14T10:22:40.394Z,2.85
2023-04-14T10:25:07.773Z,3.15
2023-04-14T10:27:34.396Z,3.08
2023-04-14T10:30:01.534Z,3.58
2023-04-14T10:32:30.021Z,3.30
2023-04-14T10:35:07.244Z,3.17
2023-04-14T10:37:35.001Z,3.05
2023-04-14T10:40:02.687Z,2.45
2023-04-14T10:42:33.064Z,2.97
2023-04-14T10:45:04.898Z,3.95
2023-04-14T10:47:31.532Z,2.70
2023-04-14T10:50:04.440Z,2.67
2023-04-14T10:52:32.179Z,3.45
2023-04-14T10:55:01.477Z,3.17
2023-04-14T10:57:28.377Z,2.40
2023-04-14T10:59:56.543Z,2.20
2023-04-14T11:02:30.532Z,2.90
2023-04-14T11:04:57.937Z,2.22
2023-04-14T11:07:24.728Z,2.75
2023-04-14T11:09:51.418Z,2.63
2023-04-14T11:12:24.734Z,2.90
2023-04-14T11:14:54.787Z,2.70
2023-04-14T11:17:24.372Z,1.90
2023-04-14T11:19:55.000Z,1.98
2023-04-14T11:22:37.350Z,2.63
2023-04-14T11:25:03.945Z,2.35
2023-04-14T11:27:30.612Z,2.17
2023-04-14T11:29:57.592Z,2.20
2023-04-14T11:32:24.191Z,1.50
2023-04-14T11:34:50.793Z,1.83
2023-04-14T11:37:17.327Z,2.30
2023-04-14T11:39:43.970Z,1.92
2023-04-14T11:42:10.501Z,1.83
2023-04-14T11:44:36.997Z,1.80
2023-04-14T11:47:03.976Z,1.80
2023-04-14T11:49:35.186Z,1.83
2023-04-14T11:52:05.850Z,1.48
2023-04-14T11:54:39.012Z,1.30
2023-04-14T11:57:10.017Z,1.20
2023-04-14T11:59:41.040Z,1.20
2023-04-14T12:02:08.039Z,1.00
2023-04-14T12:04:34.910Z,1.08
2023-04-14T12:07:02.030Z,1.17
2023-04-14T12:09:32.326Z,1.30
2023-04-14T12:11:58.916Z,1.00
2023-04-14T12:14:25.873Z,1.00
2023-04-14T12:16:52.414Z,1.30
2023-04-14T12:19:19.004Z,1.20
2023-04-14T12:21:52.676Z,1.20
2023-04-14T12:24:19.388Z,1.30
2023-04-14T12:26:46.025Z,1.30
2023-04-14T12:29:13.719Z,1.15
2023-04-14T12:31:44.343Z,1.25
2023-04-14T12:34:11.821Z,1.30
2023-04-14T12:36:50.154Z,0.90
2023-04-14T12:39:17.420Z,1.23
2023-04-14T12:41:44.024Z,1.30
2023-04-14T12:44:24.629Z,1.20
2023-04-14T12:46:51.676Z,1.60
2023-04-14T12:49:34.690Z,1.25
2023-04-14T12:52:01.306Z,1.30
2023-04-14T12:54:27.872Z,1.42
2023-04-14T12:56:54.376Z,1.48
2023-04-14T12:59:21.290Z,1.10
2023-04-14T13:01:48.076Z,1.50
2023-04-14T13:04:15.212Z,1.15
2023-04-14T13:06:41.931Z,1.33
2023-04-14T13:09:08.503Z,1.88
2023-04-14T13:11:35.243Z,1.70
2023-04-14T13:14:01.816Z,1.70
2023-04-14T13:16:28.406Z,1.98
2023-04-14T13:18:55.085Z,2.10
2023-04-14T13:21:21.664Z,2.10
2023-04-14T13:23:48.408Z,2.15
2023-04-14T13:26:15.224Z,2.17
2023-04-14T13:28:41.872Z,2.10
2023-04-14T13:31:08.442Z,2.10
2023-04-14T13:33:35.188Z,1.92
2023-04-14T13:36:02.448Z,2.03
2023-04-14T13:38:29.330Z,1.48
2023-04-14T13:40:55.862Z,2.20
2023-04-14T13:43:23.635Z,2.20
2023-04-14T13:45:50.134Z,2.08
2023-04-14T13:48:16.702Z,2.80
2023-04-14T13:50:43.278Z,2.33
2023-04-14T13:53:12.410Z,2.22
2023-04-14T13:55:39.018Z,2.60
2023-04-14T13:58:05.967Z,2.15
2023-04-14T14:00:32.682Z,2.65
2023-04-14T14:02:59.458Z,2.20
2023-04-14T14:05:26.520Z,2.17
2023-04-14T14:07:53.140Z,2.20
2023-04-14T14:10:19.982Z,2.17
2023-04-14T14:12:46.569Z,2.67
2023-04-14T14:15:13.120Z,2.40
2023-04-14T14:17:40.837Z,2.38
2023-04-14T14:20:09.245Z,2.35
2023-04-14T14:22:38.987Z,2.78
2023-04-14T14:25:18.563Z,2.97
2023-04-14T14:27:47.247Z,2.10
2023-04-14T14:30:13.797Z,3.15
2023-04-14T14:32:40.554Z,2.63
2023-04-14T14:35:07.234Z,2.63
2023-04-14T14:37:33.820Z,2.75
2023-04-14T14:40:00.533Z,2.88
2023-04-14T14:42:27.093Z,2.88
2023-04-14T14:44:53.630Z,2.85
2023-04-14T14:47:20.155Z,2.50
2023-04-14T14:49:58.890Z,2.75
2023-04-14T14:52:33.658Z,2.42
2023-04-14T14:55:00.460Z,2.55
2023-04-14T14:57:27.203Z,2.63
2023-04-14T14:59:53.836Z,2.90
2023-04-14T15:02:21.404Z,2.85
2023-04-14T15:04:48.323Z,2.92
2023-04-14T15:07:15.384Z,2.50
2023-04-14T15:09:42.131Z,3.13
2023-04-14T15:12:08.731Z,2.63
2023-04-14T15:14:35.403Z,2.33
2023-04-14T15:17:02.679Z,2.55
2023-04-14T15:19:29.370Z,2.92
2023-04-14T15:21:55.939Z,2.53
2023-04-14T15:24:22.523Z,3.25
2023-04-14T15:26:49.026Z,2.38
2023-04-14T15:29:16.016Z,2.95
2023-04-14T15:31:42.855Z,2.35
2023-04-14T15:34:09.578Z,2.60
2023-04-14T15:36:38.566Z,3.45
2023-04-14T15:39:05.199Z,2.83
2023-04-14T15:41:31.691Z,3.05
2023-04-14T15:43:58.403Z,3.20
2023-04-14T15:46:25.027Z,3.40
2023-04-14T15:48:51.584Z,2.92
2023-04-14T15:51:18.343Z,2.67
2023-04-14T15:53:44.875Z,2.58
2023-04-14T15:56:11.387Z,2.58
2023-04-14T15:58:37.908Z,2.42
2023-04-14T16:01:07.576Z,2.75
2023-04-14T16:03:34.184Z,2.55
2023-04-14T16:06:01.790Z,2.65
2023-04-14T16:08:28.995Z,2.85
2023-04-14T16:10:55.507Z,2.65
2023-04-14T16:13:22.073Z,3.10
2023-04-14T16:15:48.592Z,3.22
2023-04-14T16:18:15.147Z,2.75
2023-04-14T16:20:41.716Z,2.78
2023-04-14T16:23:08.238Z,2.40
2023-04-14T16:25:34.818Z,2.95
2023-04-14T16:28:01.396Z,3.08
2023-04-14T16:30:27.941Z,2.90
2023-04-14T16:32:54.513Z,3.65
2023-04-14T16:35:21.333Z,3.10
2023-04-14T16:37:47.873Z,4.05
2023-04-14T16:40:15.049Z,2.55
2023-04-14T16:42:41.738Z,3.03
2023-04-14T16:45:08.989Z,3.22
2023-04-14T16:47:35.746Z,3.55
2023-04-14T16:50:02.549Z,3.33
2023-04-14T16:52:29.921Z,3.58
2023-04-14T16:54:56.446Z,3.33
2023-04-14T16:57:23.304Z,4.30
2023-04-14T16:59:49.810Z,3.80
2023-04-14T17:02:16.523Z,3.75
2023-04-14T17:04:43.372Z,3.55
2023-04-14T17:07:10.101Z,3.50
2023-04-14T17:09:36.808Z,3.35
2023-04-14T17:12:03.312Z,3.35
2023-04-14T17:14:29.944Z,3.80
2023-04-14T17:16:56.808Z,4.43
2023-04-14T17:19:23.530Z,3.67
2023-04-14T17:21:50.205Z,4.07
2023-04-14T17:24:16.800Z,4.10
2023-04-14T17:26:44.399Z,4.40
2023-04-14T17:29:11.210Z,4.65
2023-04-14T17:31:39.687Z,4.90
2023-04-14T17:34:10.742Z,6.22
2023-04-14T17:36:38.050Z,6.82
2023-04-14T17:39:04.538Z,4.80
2023-04-14T17:41:31.071Z,5.40
2023-04-14T17:43:57.570Z,6.30
2023-04-14T17:46:33.569Z,5.80
2023-04-14T17:49:04.142Z,6.55
2023-04-14T17:51:30.691Z,6.50
2023-04-14T17:53:57.583Z,7.53
2023-04-14T17:56:24.570Z,6.97
2023-04-14T17:58:52.110Z,7.93
2023-04-14T18:01:19.617Z,8.70
2023-04-14T18:03:46.549Z,7.93
2023-04-14T18:06:13.548Z,8.50
2023-04-14T18:08:40.087Z,7.45
2023-04-14T18:11:06.760Z,8.77
2023-04-14T18:13:34.781Z,8.88
2023-04-14T18:16:01.968Z,8.45
2023-04-14T18:18:28.596Z,7.82
2023-04-14T18:20:55.219Z,7.18
2023-04-14T18:23:21.720Z,8.07
2023-04-14T18:28:17.851Z,7.63
2023-04-14T18:30:44.302Z,7.90
2023-04-14T18:33:10.790Z,6.75
2023-04-14T18:35:37.331Z,7.18
2023-04-14T18:38:04.056Z,7.38
2023-04-14T18:40:30.611Z,6.95
2023-04-14T18:42:57.509Z,6.93
2023-04-14T18:45:24.008Z,6.85
2023-04-14T18:47:50.819Z,7.22
2023-04-14T18:50:18.276Z,6.88
2023-04-14T18:52:44.824Z,7.13
2023-04-14T18:55:11.284Z,6.95
2023-04-14T18:57:38.250Z,6.43
2023-04-14T19:00:05.219Z,6.80
2023-04-14T19:02:32.152Z,6.00
2023-04-14T19:04:58.927Z,6.95
2023-04-14T19:07:25.479Z,6.28
2023-04-14T19:09:52.228Z,7.03
2023-04-14T19:12:28.213Z,6.28
2023-04-14T19:14:55.596Z,6.32
2023-04-14T19:17:22.417Z,6.63
2023-04-14T19:19:49.336Z,6.60
2023-04-14T19:22:16.892Z,6.85
2023-04-14T19:24:43.506Z,6.88
2023-04-14T19:27:10.480Z,7.00
2023-04-14T19:29:37.334Z,7.47
2023-04-14T19:32:05.425Z,6.97
2023-04-14T19:34:32.095Z,7.80
2023-04-14T19:36:58.687Z,7.93
2023-04-14T19:39:25.294Z,7.85
2023-04-14T19:41:51.978Z,8.27
2023-04-14T19:44:18.522Z,8.43
2023-04-14T19:46:46.544Z,8.65
2023-04-14T19:49:13.515Z,8.25
2023-04-14T19:51:40.306Z,8.88
2023-04-14T19:54:07.510Z,7.68
2023-04-14T19:56:34.237Z,8.35
2023-04-14T19:59:01.299Z,8.60
2023-04-14T20:01:28.066Z,8.60
2023-04-14T20:04:05.552Z,8.43
2023-04-14T20:06:40.408Z,9.18
2023-04-14T20:09:07.133Z,8.88
2023-04-14T20:11:33.664Z,8.32
2023-04-14T20:14:00.208Z,8.65
2023-04-14T20:16:26.936Z,8.90
2023-04-14T20:18:53.639Z,9.48
2023-04-14T20:21:20.245Z,9.07
2023-04-14T20:23:47.061Z,9.60
2023-04-14T20:26:13.616Z,9.88
2023-04-14T20:28:40.518Z,9.68
2023-04-14T20:31:08.968Z,10.10
2023-04-14T20:33:35.912Z,8.77
2023-04-14T20:36:02.519Z,8.55
2023-04-14T20:38:29.491Z,9.07
2023-04-14T20:40:56.168Z,9.35
2023-04-14T20:43:22.688Z,9.60
2023-04-14T20:45:50.007Z,9.43
2023-04-14T20:48:16.757Z,9.77
2023-04-14T20:50:44.589Z,10.02
2023-04-14T20:53:11.158Z,10.63
2023-04-14T20:55:37.800Z,9.27
2023-04-14T20:58:04.430Z,8.60
2023-04-14T21:00:33.073Z,8.50
2023-04-14T21:03:01.175Z,9.13
2023-04-14T21:05:27.876Z,8.90
2023-04-14T21:07:54.515Z,8.38
2023-04-14T21:10:21.193Z,7.68
2023-04-14T21:14:57.834Z,7.40
2023-04-14T21:15:53.122Z,7.43
2023-04-14T21:18:21.832Z,6.50
2023-04-14T21:20:48.525Z,6.05
2023-04-14T21:23:15.139Z,6.22
2023-04-14T21:25:42.427Z,6.45
2023-04-14T21:28:09.150Z,5.45
2023-04-14T21:30:35.835Z,5.63
2023-04-14T21:33:02.852Z,5.00
2023-04-14T21:35:30.399Z,5.00
2023-04-14T21:37:57.568Z,3.90
2023-04-14T21:40:24.493Z,4.05
2023-04-14T21:42:51.564Z,3.55
2023-04-14T21:45:18.756Z,4.15
2023-04-14T21:47:45.376Z,2.63
2023-04-14T21:50:11.957Z,2.83
2023-04-14T21:52:38.587Z,2.65
2023-04-14T21:55:05.375Z,2.80
2023-04-14T21:57:48.639Z,3.00
2023-04-14T22:00:17.921Z,2.67
2023-04-14T22:02:45.162Z,2.30
2023-04-14T22:05:11.960Z,3.15
2023-04-14T22:07:38.847Z,2.35
2023-04-14T22:10:05.510Z,2.47
2023-04-14T22:12:32.707Z,2.72
2023-04-14T22:15:00.822Z,2.55
2023-04-14T22:17:27.460Z,2.55
2023-04-14T22:19:54.097Z,2.60
2023-04-14T22:22:20.941Z,2.70
2023-04-14T22:24:47.532Z,2.60
2023-04-14T22:27:14.240Z,3.13
2023-04-14T22:29:40.800Z,2.67
2023-04-14T22:32:08.005Z,2.70
2023-04-14T22:34:34.504Z,2.67
2023-04-14T22:37:01.778Z,2.85
2023-04-14T22:39:28.368Z,2.95
2023-04-14T22:41:54.945Z,2.70
2023-04-14T22:44:21.786Z,3.20
2023-04-14T22:46:48.436Z,2.58
2023-04-14T22:49:15.058Z,3.85
2023-04-14T22:51:41.679Z,3.70
2023-04-14T22:54:08.848Z,2.30
2023-04-14T22:56:37.247Z,3.17
2023-04-14T22:59:04.405Z,3.67
2023-04-14T23:01:31.227Z,3.53
2023-04-14T23:03:57.930Z,3.10
2023-04-14T23:06:30.785Z,3.35
2023-04-14T23:08:57.776Z,3.38
2023-04-14T23:11:24.409Z,3.80
2023-04-14T23:13:51.446Z,3.55
2023-04-14T23:16:20.148Z,3.05
2023-04-14T23:18:51.900Z,3.22
2023-04-14T23:21:19.546Z,3.30
2023-04-14T23:23:46.196Z,3.50
2023-04-14T23:26:13.299Z,3.45
2023-04-14T23:28:39.816Z,3.55
2023-04-14T23:31:06.591Z,3.72
2023-04-14T23:33:33.164Z,4.28
2023-04-14T23:35:59.714Z,4.00
2023-04-14T23:38:26.346Z,2.72
2023-04-14T23:40:58.745Z,2.63
2023-04-14T23:43:25.808Z,2.95
2023-04-14T23:45:52.656Z,3.00
2023-04-14T23:48:19.166Z,3.22
2023-04-14T23:50:58.943Z,3.33
2023-04-14T23:53:28.821Z,3.20
2023-04-14T23:55:55.285Z,2.92
2023-04-14T23:58:26.666Z,2.45
